Centerville, Ohio
Current Conditions -  °F | °C
As of 7:36 PM on Sunday 25 Jan 2015 (Local Time) from KMGY Reporting Station
Light Snow Light Snow  
Wind Chill: 27°   Ceiling: 700
Heat Index: 34°   Visibility: 1.7mi
Dew Point: 32°   Wind: 9mph
Humidity: 92%   Direction: 40°NE
Pressure: 29.72"   Gusts: NA
Location:  39.6468°N, 84.1683°W
Report Text: KMGY 260036Z AUTO 04008KT 1 3/4SM -SN BR BKN007 OVC011 01/00 A2972 RMK AO2 RAE29SNB29 P0007 T00110000
Loading
Personal Weather Stations






























Interactive Weather Map New forecast layout! Learn more

10-Day Weather Forecast

Advertisements
Track Severe Weather on mobile